sensor_id;sensor_type;location;lat;lon;timestamp;temperature;humidity
8008;DHT22;4049;49.468;11.200;2023-03-04T00:01:32;-0.80;99.90
8008;DHT22;4049;49.468;11.200;2023-03-04T00:03:59;-0.80;99.90
8008;DHT22;4049;49.468;11.200;2023-03-04T00:06:26;-0.80;99.90
8008;DHT22;4049;49.468;11.200;2023-03-04T00:08:52;-0.90;99.90
8008;DHT22;4049;49.468;11.200;2023-03-04T00:11:19;-0.90;99.90
8008;DHT22;4049;49.468;11.200;2023-03-04T00:13:47;-0.90;99.90
8008;DHT22;4049;49.468;11.200;2023-03-04T00:16:14;-0.90;99.90
8008;DHT22;4049;49.468;11.200;2023-03-04T00:18:41;-1.00;99.90
8008;DHT22;4049;49.468;11.200;2023-03-04T00:21:08;-0.90;99.90
8008;DHT22;4049;49.468;11.200;2023-03-04T00:23:35;-1.00;99.90
8008;DHT22;4049;49.468;11.200;2023-03-04T00:26:01;-1.00;99.90
8008;DHT22;4049;49.468;11.200;2023-03-04T00:28:28;-1.00;99.90
8008;DHT22;4049;49.468;11.200;2023-03-04T00:30:56;-1.00;99.90
8008;DHT22;4049;49.468;11.200;2023-03-04T00:33:23;-1.00;99.90
8008;DHT22;4049;49.468;11.200;2023-03-04T00:35:50;-1.00;99.90
8008;DHT22;4049;49.468;11.200;2023-03-04T00:38:17;-1.00;99.90
8008;DHT22;4049;49.468;11.200;2023-03-04T00:40:44;-1.00;99.90
8008;DHT22;4049;49.468;11.200;2023-03-04T00:43:11;-1.10;99.90
8008;DHT22;4049;49.468;11.200;2023-03-04T00:45:37;-1.10;99.90
8008;DHT22;4049;49.468;11.200;2023-03-04T00:48:06;-1.20;99.90
8008;DHT22;4049;49.468;11.200;2023-03-04T00:50:32;-1.20;99.90
8008;DHT22;4049;49.468;11.200;2023-03-04T00:52:59;-1.20;99.90
8008;DHT22;4049;49.468;11.200;2023-03-04T00:55:27;-1.30;99.90
8008;DHT22;4049;49.468;11.200;2023-03-04T00:57:54;-1.30;99.90
8008;DHT22;4049;49.468;11.200;2023-03-04T01:00:21;-1.30;99.90
8008;DHT22;4049;49.468;11.200;2023-03-04T01:02:48;-1.30;99.90
8008;DHT22;4049;49.468;11.200;2023-03-04T01:05:16;-1.30;99.90
8008;DHT22;4049;49.468;11.200;2023-03-04T01:07:46;-1.30;99.90
8008;DHT22;4049;49.468;11.200;2023-03-04T01:10:14;-1.30;99.90
8008;DHT22;4049;49.468;11.200;2023-03-04T01:12:41;-1.40;99.90
8008;DHT22;4049;49.468;11.200;2023-03-04T01:15:09;-1.40;99.90
8008;DHT22;4049;49.468;11.200;2023-03-04T01:17:37;-1.30;99.90
8008;DHT22;4049;49.468;11.200;2023-03-04T01:20:06;-1.40;99.90
8008;DHT22;4049;49.468;11.200;2023-03-04T01:22:34;-1.40;99.90
8008;DHT22;4049;49.468;11.200;2023-03-04T01:25:01;-1.40;99.90
8008;DHT22;4049;49.468;11.200;2023-03-04T01:27:28;-1.50;99.90
8008;DHT22;4049;49.468;11.200;2023-03-04T01:29:54;-1.50;99.90
8008;DHT22;4049;49.468;11.200;2023-03-04T01:32:21;-1.50;99.90
8008;DHT22;4049;49.468;11.200;2023-03-04T01:34:48;-1.50;99.90
8008;DHT22;4049;49.468;11.200;2023-03-04T01:37:15;-1.50;99.90
8008;DHT22;4049;49.468;11.200;2023-03-04T01:39:43;-1.50;99.90
8008;DHT22;4049;49.468;11.200;2023-03-04T01:42:16;-1.50;99.90
8008;DHT22;4049;49.468;11.200;2023-03-04T01:44:44;-1.50;99.90
8008;DHT22;4049;49.468;11.200;2023-03-04T01:47:11;-1.50;99.90
8008;DHT22;4049;49.468;11.200;2023-03-04T01:49:38;-1.50;99.90
8008;DHT22;4049;49.468;11.200;2023-03-04T01:52:09;-1.50;99.90
8008;DHT22;4049;49.468;11.200;2023-03-04T01:54:37;-1.60;99.90
8008;DHT22;4049;49.468;11.200;2023-03-04T01:57:15;-1.60;99.90
8008;DHT22;4049;49.468;11.200;2023-03-04T01:59:42;-1.60;99.90
8008;DHT22;4049;49.468;11.200;2023-03-04T02:02:09;-1.60;99.90
8008;DHT22;4049;49.468;11.200;2023-03-04T02:04:36;-1.70;99.90
8008;DHT22;4049;49.468;11.200;2023-03-04T02:07:04;-1.70;99.90
8008;DHT22;4049;49.468;11.200;2023-03-04T02:09:32;-1.70;99.90
8008;DHT22;4049;49.468;11.200;2023-03-04T02:12:00;-1.70;99.90
8008;DHT22;4049;49.468;11.200;2023-03-04T02:14:28;-1.80;99.90
8008;DHT22;4049;49.468;11.200;2023-03-04T02:16:55;-1.80;99.90
8008;DHT22;4049;49.468;11.200;2023-03-04T02:19:30;-1.80;99.90
8008;DHT22;4049;49.468;11.200;2023-03-04T02:22:02;-1.80;99.90
8008;DHT22;4049;49.468;11.200;2023-03-04T02:24:34;-1.90;99.90
8008;DHT22;4049;49.468;11.200;2023-03-04T02:27:02;-1.90;99.90
8008;DHT22;4049;49.468;11.200;2023-03-04T02:29:30;-1.90;99.90
8008;DHT22;4049;49.468;11.200;2023-03-04T02:31:56;-1.90;99.90
8008;DHT22;4049;49.468;11.200;2023-03-04T02:34:26;-1.90;99.90
8008;DHT22;4049;49.468;11.200;2023-03-04T02:36:55;-1.90;99.90
8008;DHT22;4049;49.468;11.200;2023-03-04T02:39:27;-1.90;99.90
8008;DHT22;4049;49.468;11.200;2023-03-04T02:41:55;-1.90;99.90
8008;DHT22;4049;49.468;11.200;2023-03-04T02:44:24;-1.90;99.90
8008;DHT22;4049;49.468;11.200;2023-03-04T02:46:52;-1.90;99.90
8008;DHT22;4049;49.468;11.200;2023-03-04T02:49:20;-1.90;99.90
8008;DHT22;4049;49.468;11.200;2023-03-04T02:51:51;-2.00;99.90
8008;DHT22;4049;49.468;11.200;2023-03-04T02:54:20;-2.00;99.90
8008;DHT22;4049;49.468;11.200;2023-03-04T02:56:51;-1.90;99.90
8008;DHT22;4049;49.468;11.200;2023-03-04T02:59:19;-2.00;99.90
8008;DHT22;4049;49.468;11.200;2023-03-04T03:01:48;-2.00;99.90
8008;DHT22;4049;49.468;11.200;2023-03-04T03:04:15;-2.00;99.90
8008;DHT22;4049;49.468;11.200;2023-03-04T03:06:42;-2.00;99.90
8008;DHT22;4049;49.468;11.200;2023-03-04T03:09:09;-2.00;99.90
8008;DHT22;4049;49.468;11.200;2023-03-04T03:11:36;-2.00;99.90
8008;DHT22;4049;49.468;11.200;2023-03-04T03:14:03;-2.10;99.90
8008;DHT22;4049;49.468;11.200;2023-03-04T03:16:30;-2.10;99.90
8008;DHT22;4049;49.468;11.200;2023-03-04T03:18:58;-2.10;99.90
8008;DHT22;4049;49.468;11.200;2023-03-04T03:21:25;-2.10;99.90
8008;DHT22;4049;49.468;11.200;2023-03-04T03:23:52;-2.10;99.90
8008;DHT22;4049;49.468;11.200;2023-03-04T03:26:19;-2.20;99.90
8008;DHT22;4049;49.468;11.200;2023-03-04T03:28:46;-2.20;99.90
8008;DHT22;4049;49.468;11.200;2023-03-04T03:31:13;-2.20;99.90
8008;DHT22;4049;49.468;11.200;2023-03-04T03:33:40;-2.20;99.90
8008;DHT22;4049;49.468;11.200;2023-03-04T03:36:09;-2.20;99.90
8008;DHT22;4049;49.468;11.200;2023-03-04T03:38:35;-2.10;99.90
8008;DHT22;4049;49.468;11.200;2023-03-04T03:41:03;-2.10;99.90
8008;DHT22;4049;49.468;11.200;2023-03-04T03:43:30;-2.10;99.90
8008;DHT22;4049;49.468;11.200;2023-03-04T03:45:56;-2.00;99.90
8008;DHT22;4049;49.468;11.200;2023-03-04T03:48:23;-2.00;99.90
8008;DHT22;4049;49.468;11.200;2023-03-04T03:50:50;-2.00;99.90
8008;DHT22;4049;49.468;11.200;2023-03-04T03:53:18;-2.00;99.90
8008;DHT22;4049;49.468;11.200;2023-03-04T03:55:45;-2.00;99.90
8008;DHT22;4049;49.468;11.200;2023-03-04T03:58:11;-2.00;99.90
8008;DHT22;4049;49.468;11.200;2023-03-04T04:00:38;-1.90;99.90
8008;DHT22;4049;49.468;11.200;2023-03-04T04:03:05;-1.90;99.90
8008;DHT22;4049;49.468;11.200;2023-03-04T04:05:32;-1.90;99.90
8008;DHT22;4049;49.468;11.200;2023-03-04T04:07:59;-1.90;99.90
8008;DHT22;4049;49.468;11.200;2023-03-04T04:10:27;-1.90;99.90
8008;DHT22;4049;49.468;11.200;2023-03-04T04:12:54;-1.90;99.90
8008;DHT22;4049;49.468;11.200;2023-03-04T04:15:20;-1.80;99.90
8008;DHT22;4049;49.468;11.200;2023-03-04T04:17:47;-1.80;99.90
8008;DHT22;4049;49.468;11.200;2023-03-04T04:20:14;-1.80;99.90
8008;DHT22;4049;49.468;11.200;2023-03-04T04:22:41;-1.80;99.90
8008;DHT22;4049;49.468;11.200;2023-03-04T04:25:08;-1.80;99.90
8008;DHT22;4049;49.468;11.200;2023-03-04T04:27:36;-1.80;99.90
8008;DHT22;4049;49.468;11.200;2023-03-04T04:30:04;-1.80;99.90
8008;DHT22;4049;49.468;11.200;2023-03-04T04:32:32;-1.80;99.90
8008;DHT22;4049;49.468;11.200;2023-03-04T04:34:58;-1.70;99.90
8008;DHT22;4049;49.468;11.200;2023-03-04T04:37:25;-1.70;99.90
8008;DHT22;4049;49.468;11.200;2023-03-04T04:39:52;-1.70;99.90
8008;DHT22;4049;49.468;11.200;2023-03-04T04:42:20;-1.70;99.90
8008;DHT22;4049;49.468;11.200;2023-03-04T04:44:48;-1.70;99.90
8008;DHT22;4049;49.468;11.200;2023-03-04T04:47:15;-1.70;99.90
8008;DHT22;4049;49.468;11.200;2023-03-04T04:49:42;-1.60;99.90
8008;DHT22;4049;49.468;11.200;2023-03-04T04:52:08;-1.60;99.90
8008;DHT22;4049;49.468;11.200;2023-03-04T04:54:35;-1.60;99.90
8008;DHT22;4049;49.468;11.200;2023-03-04T04:57:02;-1.60;99.90
8008;DHT22;4049;49.468;11.200;2023-03-04T04:59:29;-1.60;99.90
8008;DHT22;4049;49.468;11.200;2023-03-04T05:01:57;-1.60;99.90
8008;DHT22;4049;49.468;11.200;2023-03-04T05:04:24;-1.60;99.90
8008;DHT22;4049;49.468;11.200;2023-03-04T05:06:51;-1.50;99.90
8008;DHT22;4049;49.468;11.200;2023-03-04T05:09:17;-1.50;99.90
8008;DHT22;4049;49.468;11.200;2023-03-04T05:11:45;-1.50;99.90
8008;DHT22;4049;49.468;11.200;2023-03-04T05:14:12;-1.50;99.90
8008;DHT22;4049;49.468;11.200;2023-03-04T05:16:39;-1.50;99.90
8008;DHT22;4049;49.468;11.200;2023-03-04T05:19:07;-1.50;99.90
8008;DHT22;4049;49.468;11.200;2023-03-04T05:21:33;-1.50;99.90
8008;DHT22;4049;49.468;11.200;2023-03-04T05:24:00;-1.50;99.90
8008;DHT22;4049;49.468;11.200;2023-03-04T05:26:27;-1.50;99.90
8008;DHT22;4049;49.468;11.200;2023-03-04T05:28:54;-1.40;99.90
8008;DHT22;4049;49.468;11.200;2023-03-04T05:31:21;-1.40;99.90
8008;DHT22;4049;49.468;11.200;2023-03-04T05:33:47;-1.40;99.90
8008;DHT22;4049;49.468;11.200;2023-03-04T05:36:15;-1.40;99.90
8008;DHT22;4049;49.468;11.200;2023-03-04T05:38:42;-1.40;99.90
8008;DHT22;4049;49.468;11.200;2023-03-04T05:41:09;-1.40;99.90
8008;DHT22;4049;49.468;11.200;2023-03-04T05:43:36;-1.40;99.90
8008;DHT22;4049;49.468;11.200;2023-03-04T05:46:07;-1.40;99.90
8008;DHT22;4049;49.468;11.200;2023-03-04T05:48:34;-1.40;99.90
8008;DHT22;4049;49.468;11.200;2023-03-04T05:51:01;-1.40;99.90
8008;DHT22;4049;49.468;11.200;2023-03-04T05:53:29;-1.40;99.90
8008;DHT22;4049;49.468;11.200;2023-03-04T05:55:56;-1.40;99.90
8008;DHT22;4049;49.468;11.200;2023-03-04T05:58:24;-1.30;99.90
8008;DHT22;4049;49.468;11.200;2023-03-04T06:00:51;-1.30;99.90
8008;DHT22;4049;49.468;11.200;2023-03-04T06:03:20;-1.30;99.90
8008;DHT22;4049;49.468;11.200;2023-03-04T06:05:47;-1.30;99.90
8008;DHT22;4049;49.468;11.200;2023-03-04T06:08:14;-1.30;99.90
8008;DHT22;4049;49.468;11.200;2023-03-04T06:10:42;-1.30;99.90
8008;DHT22;4049;49.468;11.200;2023-03-04T06:13:09;-1.20;99.90
8008;DHT22;4049;49.468;11.200;2023-03-04T06:15:37;-1.20;99.90
8008;DHT22;4049;49.468;11.200;2023-03-04T06:18:04;-1.20;99.90
8008;DHT22;4049;49.468;11.200;2023-03-04T06:20:30;-1.20;99.90
8008;DHT22;4049;49.468;11.200;2023-03-04T06:22:57;-1.20;99.90
8008;DHT22;4049;49.468;11.200;2023-03-04T06:25:24;-1.20;99.90
8008;DHT22;4049;49.468;11.200;2023-03-04T06:27:52;-1.20;99.90
8008;DHT22;4049;49.468;11.200;2023-03-04T06:30:19;-1.20;99.90
8008;DHT22;4049;49.468;11.200;2023-03-04T06:32:46;-1.20;99.90
8008;DHT22;4049;49.468;11.200;2023-03-04T06:35:14;-1.20;99.90
8008;DHT22;4049;49.468;11.200;2023-03-04T06:37:42;-1.20;99.90
8008;DHT22;4049;49.468;11.200;2023-03-04T06:40:10;-1.20;99.90
8008;DHT22;4049;49.468;11.200;2023-03-04T06:42:37;-1.10;99.90
8008;DHT22;4049;49.468;11.200;2023-03-04T06:45:07;-1.10;99.90
8008;DHT22;4049;49.468;11.200;2023-03-04T06:47:34;-1.10;99.90
8008;DHT22;4049;49.468;11.200;2023-03-04T06:50:00;-1.10;99.90
8008;DHT22;4049;49.468;11.200;2023-03-04T06:52:28;-1.10;99.90
8008;DHT22;4049;49.468;11.200;2023-03-04T06:54:55;-1.00;99.90
8008;DHT22;4049;49.468;11.200;2023-03-04T06:57:21;-1.00;99.90
8008;DHT22;4049;49.468;11.200;2023-03-04T06:59:48;-1.00;99.90
8008;DHT22;4049;49.468;11.200;2023-03-04T07:02:16;-1.00;99.90
8008;DHT22;4049;49.468;11.200;2023-03-04T07:04:43;-1.00;99.90
8008;DHT22;4049;49.468;11.200;2023-03-04T07:07:10;-1.00;99.90
8008;DHT22;4049;49.468;11.200;2023-03-04T07:09:37;-1.00;99.90
8008;DHT22;4049;49.468;11.200;2023-03-04T07:12:04;-0.90;99.90
8008;DHT22;4049;49.468;11.200;2023-03-04T07:14:31;-0.90;99.90
8008;DHT22;4049;49.468;11.200;2023-03-04T07:16:58;-0.90;99.90
8008;DHT22;4049;49.468;11.200;2023-03-04T07:19:26;-0.90;99.90
8008;DHT22;4049;49.468;11.200;2023-03-04T07:21:53;-0.90;99.90
8008;DHT22;4049;49.468;11.200;2023-03-04T07:24:20;-0.80;99.90
8008;DHT22;4049;49.468;11.200;2023-03-04T07:26:47;-0.80;99.90
8008;DHT22;4049;49.468;11.200;2023-03-04T07:29:13;-0.80;99.90
8008;DHT22;4049;49.468;11.200;2023-03-04T07:31:40;-0.80;99.90
8008;DHT22;4049;49.468;11.200;2023-03-04T07:34:11;-0.80;99.90
8008;DHT22;4049;49.468;11.200;2023-03-04T07:36:40;-0.80;99.90
8008;DHT22;4049;49.468;11.200;2023-03-04T07:39:07;-0.80;99.90
8008;DHT22;4049;49.468;11.200;2023-03-04T07:41:35;-0.70;99.90
8008;DHT22;4049;49.468;11.200;2023-03-04T07:44:03;-0.70;99.90
8008;DHT22;4049;49.468;11.200;2023-03-04T07:46:30;-0.70;99.90
8008;DHT22;4049;49.468;11.200;2023-03-04T07:48:57;-0.70;99.90
8008;DHT22;4049;49.468;11.200;2023-03-04T07:51:24;-0.60;99.90
8008;DHT22;4049;49.468;11.200;2023-03-04T07:53:55;-0.60;99.90
8008;DHT22;4049;49.468;11.200;2023-03-04T07:56:23;-0.60;99.90
8008;DHT22;4049;49.468;11.200;2023-03-04T07:58:51;-0.60;99.90
8008;DHT22;4049;49.468;11.200;2023-03-04T08:01:21;-0.60;99.90
8008;DHT22;4049;49.468;11.200;2023-03-04T08:03:48;-0.50;99.90
8008;DHT22;4049;49.468;11.200;2023-03-04T08:06:17;-0.50;99.90
8008;DHT22;4049;49.468;11.200;2023-03-04T08:08:44;-0.40;99.90
8008;DHT22;4049;49.468;11.200;2023-03-04T08:11:14;-0.40;99.90
8008;DHT22;4049;49.468;11.200;2023-03-04T08:13:42;-0.40;99.90
8008;DHT22;4049;49.468;11.200;2023-03-04T08:16:11;-0.40;99.90
8008;DHT22;4049;49.468;11.200;2023-03-04T08:18:40;-0.30;99.90
8008;DHT22;4049;49.468;11.200;2023-03-04T08:21:08;-0.30;99.90
8008;DHT22;4049;49.468;11.200;2023-03-04T08:23:35;-0.30;99.90
8008;DHT22;4049;49.468;11.200;2023-03-04T08:26:05;-0.20;99.90
8008;DHT22;4049;49.468;11.200;2023-03-04T08:28:34;-0.20;99.90
8008;DHT22;4049;49.468;11.200;2023-03-04T08:31:02;-0.20;99.90
8008;DHT22;4049;49.468;11.200;2023-03-04T08:33:30;-0.10;99.90
8008;DHT22;4049;49.468;11.200;2023-03-04T08:35:56;-0.10;99.90
8008;DHT22;4049;49.468;11.200;2023-03-04T08:38:23;0.00;99.90
8008;DHT22;4049;49.468;11.200;2023-03-04T08:40:54;0.00;99.90
8008;DHT22;4049;49.468;11.200;2023-03-04T08:43:21;0.10;99.90
8008;DHT22;4049;49.468;11.200;2023-03-04T08:45:50;0.10;99.90
8008;DHT22;4049;49.468;11.200;2023-03-04T08:48:17;0.20;99.90
8008;DHT22;4049;49.468;11.200;2023-03-04T08:50:45;0.20;99.90
8008;DHT22;4049;49.468;11.200;2023-03-04T08:53:13;0.20;99.90
8008;DHT22;4049;49.468;11.200;2023-03-04T08:55:40;0.30;99.90
8008;DHT22;4049;49.468;11.200;2023-03-04T08:58:08;0.30;99.90
8008;DHT22;4049;49.468;11.200;2023-03-04T09:00:37;0.40;99.90
8008;DHT22;4049;49.468;11.200;2023-03-04T09:03:05;0.40;99.90
8008;DHT22;4049;49.468;11.200;2023-03-04T09:05:32;0.40;99.90
8008;DHT22;4049;49.468;11.200;2023-03-04T09:07:59;0.50;99.90
8008;DHT22;4049;49.468;11.200;2023-03-04T09:10:26;0.60;99.90
8008;DHT22;4049;49.468;11.200;2023-03-04T09:12:52;0.60;99.90
8008;DHT22;4049;49.468;11.200;2023-03-04T09:15:19;0.70;99.90
8008;DHT22;4049;49.468;11.200;2023-03-04T09:17:46;0.70;99.90
8008;DHT22;4049;49.468;11.200;2023-03-04T09:20:14;0.70;99.90
8008;DHT22;4049;49.468;11.200;2023-03-04T09:22:41;0.80;99.90
8008;DHT22;4049;49.468;11.200;2023-03-04T09:25:13;0.80;99.90
8008;DHT22;4049;49.468;11.200;2023-03-04T09:27:40;0.80;99.90
8008;DHT22;4049;49.468;11.200;2023-03-04T09:30:08;0.80;99.90
8008;DHT22;4049;49.468;11.200;2023-03-04T09:32:35;0.90;99.90
8008;DHT22;4049;49.468;11.200;2023-03-04T09:35:03;0.90;99.90
8008;DHT22;4049;49.468;11.200;2023-03-04T09:37:31;0.90;99.90
8008;DHT22;4049;49.468;11.200;2023-03-04T09:39:58;0.90;99.90
8008;DHT22;4049;49.468;11.200;2023-03-04T09:42:29;1.00;99.90
8008;DHT22;4049;49.468;11.200;2023-03-04T09:44:59;1.00;99.90
8008;DHT22;4049;49.468;11.200;2023-03-04T09:47:30;1.10;99.90
8008;DHT22;4049;49.468;11.200;2023-03-04T09:50:01;1.10;99.90
8008;DHT22;4049;49.468;11.200;2023-03-04T09:52:40;1.20;99.90
8008;DHT22;4049;49.468;11.200;2023-03-04T09:55:17;1.20;99.90
8008;DHT22;4049;49.468;11.200;2023-03-04T09:57:49;1.20;99.90
8008;DHT22;4049;49.468;11.200;2023-03-04T10:00:21;1.30;99.90
8008;DHT22;4049;49.468;11.200;2023-03-04T10:03:14;1.30;99.90
8008;DHT22;4049;49.468;11.200;2023-03-04T10:05:48;1.30;99.90
8008;DHT22;4049;49.468;11.200;2023-03-04T10:08:40;1.30;99.90
8008;DHT22;4049;49.468;11.200;2023-03-04T10:11:14;1.40;99.90
8008;DHT22;4049;49.468;11.200;2023-03-04T10:13:49;1.40;99.90
8008;DHT22;4049;49.468;11.200;2023-03-04T10:16:23;1.50;99.90
8008;DHT22;4049;49.468;11.200;2023-03-04T10:18:54;1.50;99.90
8008;DHT22;4049;49.468;11.200;2023-03-04T10:21:26;1.50;99.90
8008;DHT22;4049;49.468;11.200;2023-03-04T10:23:59;1.60;99.90
8008;DHT22;4049;49.468;11.200;2023-03-04T10:26:29;1.60;99.90
8008;DHT22;4049;49.468;11.200;2023-03-04T10:28:57;1.70;99.90
8008;DHT22;4049;49.468;11.200;2023-03-04T10:31:32;1.70;99.90
8008;DHT22;4049;49.468;11.200;2023-03-04T10:34:01;1.80;99.90
8008;DHT22;4049;49.468;11.200;2023-03-04T10:36:43;1.80;99.90
8008;DHT22;4049;49.468;11.200;2023-03-04T10:39:17;1.90;99.90
8008;DHT22;4049;49.468;11.200;2023-03-04T10:41:54;1.90;99.90
8008;DHT22;4049;49.468;11.200;2023-03-04T10:44:22;1.90;99.90
8008;DHT22;4049;49.468;11.200;2023-03-04T10:46:49;1.90;99.90
8008;DHT22;4049;49.468;11.200;2023-03-04T10:49:18;2.00;99.90
8008;DHT22;4049;49.468;11.200;2023-03-04T10:51:46;2.10;99.90
8008;DHT22;4049;49.468;11.200;2023-03-04T10:54:23;2.10;99.90
8008;DHT22;4049;49.468;11.200;2023-03-04T10:56:57;2.10;99.90
8008;DHT22;4049;49.468;11.200;2023-03-04T10:59:39;2.10;99.90
8008;DHT22;4049;49.468;11.200;2023-03-04T11:02:21;2.10;99.90
8008;DHT22;4049;49.468;11.200;2023-03-04T11:04:50;2.20;99.90
8008;DHT22;4049;49.468;11.200;2023-03-04T11:07:18;2.20;99.90
8008;DHT22;4049;49.468;11.200;2023-03-04T11:09:46;2.30;99.90
8008;DHT22;4049;49.468;11.200;2023-03-04T11:12:15;2.30;99.90
8008;DHT22;4049;49.468;11.200;2023-03-04T11:14:46;2.30;99.90
8008;DHT22;4049;49.468;11.200;2023-03-04T11:17:22;2.30;99.90
8008;DHT22;4049;49.468;11.200;2023-03-04T11:19:54;2.40;99.90
8008;DHT22;4049;49.468;11.200;2023-03-04T11:22:23;2.40;99.90
8008;DHT22;4049;49.468;11.200;2023-03-04T11:24:58;2.40;99.90
8008;DHT22;4049;49.468;11.200;2023-03-04T11:27:40;2.40;99.90
8008;DHT22;4049;49.468;11.200;2023-03-04T11:30:24;2.50;99.90
8008;DHT22;4049;49.468;11.200;2023-03-04T11:32:55;2.50;99.90
8008;DHT22;4049;49.468;11.200;2023-03-04T11:35:28;2.50;99.90
8008;DHT22;4049;49.468;11.200;2023-03-04T11:38:03;2.50;99.90
8008;DHT22;4049;49.468;11.200;2023-03-04T11:40:37;2.50;99.90
8008;DHT22;4049;49.468;11.200;2023-03-04T11:43:10;2.50;99.90
8008;DHT22;4049;49.468;11.200;2023-03-04T11:45:57;2.50;99.90
8008;DHT22;4049;49.468;11.200;2023-03-04T11:48:33;2.50;99.90
8008;DHT22;4049;49.468;11.200;2023-03-04T11:51:05;2.50;99.90
8008;DHT22;4049;49.468;11.200;2023-03-04T11:53:50;2.50;99.90
8008;DHT22;4049;49.468;11.200;2023-03-04T11:56:31;2.50;99.90
8008;DHT22;4049;49.468;11.200;2023-03-04T11:59:18;2.50;99.90
8008;DHT22;4049;49.468;11.200;2023-03-04T12:01:58;2.50;99.90
8008;DHT22;4049;49.468;11.200;2023-03-04T12:07:45;2.50;99.90
8008;DHT22;4049;49.468;11.200;2023-03-04T12:10:21;2.50;99.90
8008;DHT22;4049;49.468;11.200;2023-03-04T12:13:17;2.50;99.90
8008;DHT22;4049;49.468;11.200;2023-03-04T12:15:50;2.50;99.90
8008;DHT22;4049;49.468;11.200;2023-03-04T12:18:36;2.50;99.90
8008;DHT22;4049;49.468;11.200;2023-03-04T12:21:16;2.50;99.90
8008;DHT22;4049;49.468;11.200;2023-03-04T12:26:55;2.50;99.90
8008;DHT22;4049;49.468;11.200;2023-03-04T12:29:30;2.50;99.90
8008;DHT22;4049;49.468;11.200;2023-03-04T12:32:03;2.50;99.90
8008;DHT22;4049;49.468;11.200;2023-03-04T12:34:43;2.50;99.90
8008;DHT22;4049;49.468;11.200;2023-03-04T12:37:25;2.60;99.90
8008;DHT22;4049;49.468;11.200;2023-03-04T12:40:16;2.60;99.90
8008;DHT22;4049;49.468;11.200;2023-03-04T12:42:55;2.60;99.90
8008;DHT22;4049;49.468;11.200;2023-03-04T12:45:31;2.60;99.90
8008;DHT22;4049;49.468;11.200;2023-03-04T12:48:08;2.60;99.90
8008;DHT22;4049;49.468;11.200;2023-03-04T12:50:41;2.60;99.90
8008;DHT22;4049;49.468;11.200;2023-03-04T12:53:20;2.60;99.90
8008;DHT22;4049;49.468;11.200;2023-03-04T12:55:54;2.60;99.90
8008;DHT22;4049;49.468;11.200;2023-03-04T12:58:24;2.60;99.90
8008;DHT22;4049;49.468;11.200;2023-03-04T13:00:58;2.70;99.90
8008;DHT22;4049;49.468;11.200;2023-03-04T13:03:36;2.70;99.90
8008;DHT22;4049;49.468;11.200;2023-03-04T13:06:13;2.70;99.90
8008;DHT22;4049;49.468;11.200;2023-03-04T13:08:50;2.70;99.90
8008;DHT22;4049;49.468;11.200;2023-03-04T13:11:51;2.70;99.90
8008;DHT22;4049;49.468;11.200;2023-03-04T13:14:26;2.80;99.90
8008;DHT22;4049;49.468;11.200;2023-03-04T13:16:56;2.80;99.90
8008;DHT22;4049;49.468;11.200;2023-03-04T13:19:46;2.80;99.90
8008;DHT22;4049;49.468;11.200;2023-03-04T13:22:33;2.80;99.90
8008;DHT22;4049;49.468;11.200;2023-03-04T13:25:29;2.80;99.90
8008;DHT22;4049;49.468;11.200;2023-03-04T13:31:12;2.80;99.90
8008;DHT22;4049;49.468;11.200;2023-03-04T13:34:02;2.90;99.90
8008;DHT22;4049;49.468;11.200;2023-03-04T13:36:52;2.80;99.90
8008;DHT22;4049;49.468;11.200;2023-03-04T13:39:38;2.90;99.90
8008;DHT22;4049;49.468;11.200;2023-03-04T13:42:38;2.90;99.90
8008;DHT22;4049;49.468;11.200;2023-03-04T13:45:31;2.90;99.90
8008;DHT22;4049;49.468;11.200;2023-03-04T13:48:01;3.00;99.90
8008;DHT22;4049;49.468;11.200;2023-03-04T13:50:37;2.90;99.90
8008;DHT22;4049;49.468;11.200;2023-03-04T13:53:37;3.00;99.90
8008;DHT22;4049;49.468;11.200;2023-03-04T13:56:21;3.00;99.90
8008;DHT22;4049;49.468;11.200;2023-03-04T13:58:50;3.00;99.90
8008;DHT22;4049;49.468;11.200;2023-03-04T14:01:24;3.00;99.90
8008;DHT22;4049;49.468;11.200;2023-03-04T14:03:52;3.00;99.90
8008;DHT22;4049;49.468;11.200;2023-03-04T14:06:22;3.00;99.90
8008;DHT22;4049;49.468;11.200;2023-03-04T14:08:50;3.00;99.90
8008;DHT22;4049;49.468;11.200;2023-03-04T14:11:24;3.00;99.90
8008;DHT22;4049;49.468;11.200;2023-03-04T14:13:52;3.00;99.90
8008;DHT22;4049;49.468;11.200;2023-03-04T14:16:24;3.00;99.90
8008;DHT22;4049;49.468;11.200;2023-03-04T14:19:02;3.00;99.90
8008;DHT22;4049;49.468;11.200;2023-03-04T14:21:33;3.00;99.90
8008;DHT22;4049;49.468;11.200;2023-03-04T14:24:05;3.10;99.90
8008;DHT22;4049;49.468;11.200;2023-03-04T14:26:33;3.10;99.90
8008;DHT22;4049;49.468;11.200;2023-03-04T14:29:00;3.10;99.90
8008;DHT22;4049;49.468;11.200;2023-03-04T14:31:30;3.10;99.90
8008;DHT22;4049;49.468;11.200;2023-03-04T14:34:00;3.10;99.90
8008;DHT22;4049;49.468;11.200;2023-03-04T14:36:30;3.10;99.90
8008;DHT22;4049;49.468;11.200;2023-03-04T14:39:01;3.10;99.90
8008;DHT22;4049;49.468;11.200;2023-03-04T14:41:32;3.10;99.90
8008;DHT22;4049;49.468;11.200;2023-03-04T14:44:03;3.10;99.90
8008;DHT22;4049;49.468;11.200;2023-03-04T14:46:36;3.10;99.90
8008;DHT22;4049;49.468;11.200;2023-03-04T14:49:05;3.10;99.90
8008;DHT22;4049;49.468;11.200;2023-03-04T14:51:40;3.10;99.90
8008;DHT22;4049;49.468;11.200;2023-03-04T14:59:46;3.10;99.90
8008;DHT22;4049;49.468;11.200;2023-03-04T15:02:19;3.00;99.90
8008;DHT22;4049;49.468;11.200;2023-03-04T15:04:47;3.00;99.90
8008;DHT22;4049;49.468;11.200;2023-03-04T15:07:17;3.00;99.90
8008;DHT22;4049;49.468;11.200;2023-03-04T15:09:50;3.00;99.90
8008;DHT22;4049;49.468;11.200;2023-03-04T15:12:25;3.00;99.90
8008;DHT22;4049;49.468;11.200;2023-03-04T15:14:55;3.00;99.90
8008;DHT22;4049;49.468;11.200;2023-03-04T15:17:27;3.00;99.90
8008;DHT22;4049;49.468;11.200;2023-03-04T15:20:17;3.00;99.90
8008;DHT22;4049;49.468;11.200;2023-03-04T15:22:58;2.90;99.90
8008;DHT22;4049;49.468;11.200;2023-03-04T15:25:26;2.90;99.90
8008;DHT22;4049;49.468;11.200;2023-03-04T15:27:55;2.90;99.90
8008;DHT22;4049;49.468;11.200;2023-03-04T15:30:24;2.90;99.90
8008;DHT22;4049;49.468;11.200;2023-03-04T15:32:52;2.90;99.90
8008;DHT22;4049;49.468;11.200;2023-03-04T15:35:19;2.90;99.90
8008;DHT22;4049;49.468;11.200;2023-03-04T15:37:47;2.90;99.90
8008;DHT22;4049;49.468;11.200;2023-03-04T15:40:22;2.90;99.90
8008;DHT22;4049;49.468;11.200;2023-03-04T15:42:49;2.90;99.90
8008;DHT22;4049;49.468;11.200;2023-03-04T15:45:20;2.90;99.90
8008;DHT22;4049;49.468;11.200;2023-03-04T15:47:47;2.80;99.90
8008;DHT22;4049;49.468;11.200;2023-03-04T15:50:14;2.80;99.90
8008;DHT22;4049;49.468;11.200;2023-03-04T15:52:41;2.80;99.90
8008;DHT22;4049;49.468;11.200;2023-03-04T15:55:13;2.70;99.90
8008;DHT22;4049;49.468;11.200;2023-03-04T15:57:40;2.80;99.90
8008;DHT22;4049;49.468;11.200;2023-03-04T16:00:10;2.80;99.90
8008;DHT22;4049;49.468;11.200;2023-03-04T16:02:38;2.80;99.90
8008;DHT22;4049;49.468;11.200;2023-03-04T16:05:06;2.70;99.90
8008;DHT22;4049;49.468;11.200;2023-03-04T16:07:34;2.70;99.90
8008;DHT22;4049;49.468;11.200;2023-03-04T16:10:04;2.70;99.90
8008;DHT22;4049;49.468;11.200;2023-03-04T16:12:33;2.70;99.90
8008;DHT22;4049;49.468;11.200;2023-03-04T16:15:00;2.70;99.90
8008;DHT22;4049;49.468;11.200;2023-03-04T16:17:26;2.70;99.90
8008;DHT22;4049;49.468;11.200;2023-03-04T16:19:55;2.70;99.90
8008;DHT22;4049;49.468;11.200;2023-03-04T16:22:23;2.70;99.90
8008;DHT22;4049;49.468;11.200;2023-03-04T16:24:52;2.70;99.90
8008;DHT22;4049;49.468;11.200;2023-03-04T16:27:19;2.70;99.90